sensor_id;sensor_type;location;lat;lon;timestamp;P1;durP1;ratioP1;P2;durP2;ratioP2
64065;SDS011;50318;54.760;9.408;2022-10-24T00:01:52;16.95;;;10.63;;
64065;SDS011;50318;54.760;9.408;2022-10-24T00:04:18;24.10;;;11.85;;
64065;SDS011;50318;54.760;9.408;2022-10-24T00:06:43;20.00;;;10.35;;
64065;SDS011;50318;54.760;9.408;2022-10-24T00:09:09;19.40;;;11.18;;
64065;SDS011;50318;54.760;9.408;2022-10-24T00:11:35;14.70;;;9.75;;
64065;SDS011;50318;54.760;9.408;2022-10-24T00:14:02;18.38;;;10.15;;
64065;SDS011;50318;54.760;9.408;2022-10-24T00:16:28;14.30;;;9.68;;
64065;SDS011;50318;54.760;9.408;2022-10-24T00:18:54;15.63;;;10.35;;
64065;SDS011;50318;54.760;9.408;2022-10-24T00:21:19;18.48;;;10.80;;
64065;SDS011;50318;54.760;9.408;2022-10-24T00:23:45;18.30;;;10.60;;
64065;SDS011;50318;54.760;9.408;2022-10-24T00:26:11;17.33;;;9.88;;
64065;SDS011;50318;54.760;9.408;2022-10-24T00:28:37;14.40;;;9.65;;
64065;SDS011;50318;54.760;9.408;2022-10-24T00:31:04;16.27;;;10.25;;
64065;SDS011;50318;54.760;9.408;2022-10-24T00:33:31;14.80;;;9.27;;
64065;SDS011;50318;54.760;9.408;2022-10-24T00:35:57;15.95;;;9.57;;
64065;SDS011;50318;54.760;9.408;2022-10-24T00:38:23;17.08;;;9.45;;
64065;SDS011;50318;54.760;9.408;2022-10-24T00:40:49;17.60;;;10.05;;
64065;SDS011;50318;54.760;9.408;2022-10-24T00:43:18;15.77;;;9.40;;
64065;SDS011;50318;54.760;9.408;2022-10-24T00:45:49;13.63;;;10.23;;
64065;SDS011;50318;54.760;9.408;2022-10-24T00:53:50;17.27;;;9.98;;
64065;SDS011;50318;54.760;9.408;2022-10-24T00:56:19;13.30;;;9.07;;
64065;SDS011;50318;54.760;9.408;2022-10-24T00:58:49;15.68;;;9.18;;
64065;SDS011;50318;54.760;9.408;2022-10-24T01:01:17;13.65;;;8.73;;
64065;SDS011;50318;54.760;9.408;2022-10-24T01:03:43;16.65;;;7.97;;
64065;SDS011;50318;54.760;9.408;2022-10-24T01:12:03;14.50;;;8.02;;
64065;SDS011;50318;54.760;9.408;2022-10-24T01:17:36;14.43;;;7.55;;
64065;SDS011;50318;54.760;9.408;2022-10-24T01:28:21;9.75;;;6.25;;
64065;SDS011;50318;54.760;9.408;2022-10-24T01:31:16;14.18;;;6.45;;
64065;SDS011;50318;54.760;9.408;2022-10-24T01:33:51;11.32;;;6.50;;
64065;SDS011;50318;54.760;9.408;2022-10-24T01:36:27;9.90;;;6.00;;
64065;SDS011;50318;54.760;9.408;2022-10-24T01:38:56;14.23;;;6.22;;
64065;SDS011;50318;54.760;9.408;2022-10-24T01:41:27;13.23;;;6.22;;
64065;SDS011;50318;54.760;9.408;2022-10-24T01:46:31;12.50;;;6.40;;
64065;SDS011;50318;54.760;9.408;2022-10-24T01:49:11;10.43;;;6.75;;
64065;SDS011;50318;54.760;9.408;2022-10-24T01:51:40;12.07;;;6.72;;
64065;SDS011;50318;54.760;9.408;2022-10-24T01:54:07;13.57;;;6.88;;
64065;SDS011;50318;54.760;9.408;2022-10-24T01:56:35;12.85;;;6.57;;
64065;SDS011;50318;54.760;9.408;2022-10-24T01:59:08;12.25;;;6.15;;
64065;SDS011;50318;54.760;9.408;2022-10-24T02:01:53;10.43;;;6.32;;
64065;SDS011;50318;54.760;9.408;2022-10-24T02:04:22;11.90;;;6.18;;
64065;SDS011;50318;54.760;9.408;2022-10-24T02:06:51;13.13;;;6.22;;
64065;SDS011;50318;54.760;9.408;2022-10-24T02:09:20;11.63;;;6.30;;
64065;SDS011;50318;54.760;9.408;2022-10-24T02:11:46;11.98;;;6.15;;
64065;SDS011;50318;54.760;9.408;2022-10-24T02:14:15;12.38;;;6.07;;
64065;SDS011;50318;54.760;9.408;2022-10-24T02:16:46;13.05;;;6.07;;
64065;SDS011;50318;54.760;9.408;2022-10-24T02:19:12;13.77;;;5.75;;
64065;SDS011;50318;54.760;9.408;2022-10-24T02:21:48;9.13;;;5.80;;
64065;SDS011;50318;54.760;9.408;2022-10-24T02:24:19;10.98;;;6.22;;
64065;SDS011;50318;54.760;9.408;2022-10-24T02:29:21;10.23;;;5.47;;
64065;SDS011;50318;54.760;9.408;2022-10-24T02:31:54;12.52;;;6.03;;
64065;SDS011;50318;54.760;9.408;2022-10-24T02:34:28;11.52;;;6.25;;
64065;SDS011;50318;54.760;9.408;2022-10-24T02:36:58;11.25;;;6.05;;
64065;SDS011;50318;54.760;9.408;2022-10-24T02:39:25;12.57;;;5.80;;
64065;SDS011;50318;54.760;9.408;2022-10-24T02:41:52;9.18;;;5.95;;
64065;SDS011;50318;54.760;9.408;2022-10-24T02:44:21;11.75;;;6.32;;
64065;SDS011;50318;54.760;9.408;2022-10-24T02:46:49;10.60;;;6.40;;
64065;SDS011;50318;54.760;9.408;2022-10-24T02:49:18;8.25;;;6.05;;
64065;SDS011;50318;54.760;9.408;2022-10-24T02:51:44;11.13;;;6.15;;
64065;SDS011;50318;54.760;9.408;2022-10-24T02:54:11;13.63;;;6.38;;
64065;SDS011;50318;54.760;9.408;2022-10-24T02:56:42;11.85;;;6.13;;
64065;SDS011;50318;54.760;9.408;2022-10-24T02:59:12;8.70;;;5.85;;
64065;SDS011;50318;54.760;9.408;2022-10-24T03:01:38;11.63;;;6.00;;
64065;SDS011;50318;54.760;9.408;2022-10-24T03:04:12;12.32;;;6.60;;
64065;SDS011;50318;54.760;9.408;2022-10-24T03:06:38;14.93;;;6.15;;
64065;SDS011;50318;54.760;9.408;2022-10-24T03:09:03;16.45;;;6.90;;
64065;SDS011;50318;54.760;9.408;2022-10-24T03:11:29;11.55;;;6.40;;
64065;SDS011;50318;54.760;9.408;2022-10-24T03:13:55;11.70;;;6.25;;
64065;SDS011;50318;54.760;9.408;2022-10-24T03:16:21;10.95;;;6.35;;
64065;SDS011;50318;54.760;9.408;2022-10-24T03:18:46;13.85;;;6.20;;
64065;SDS011;50318;54.760;9.408;2022-10-24T03:21:12;10.13;;;6.10;;
64065;SDS011;50318;54.760;9.408;2022-10-24T03:23:37;10.32;;;6.13;;
64065;SDS011;50318;54.760;9.408;2022-10-24T03:26:03;13.40;;;6.30;;
64065;SDS011;50318;54.760;9.408;2022-10-24T03:28:33;14.15;;;5.85;;
64065;SDS011;50318;54.760;9.408;2022-10-24T03:30:58;9.88;;;6.03;;
64065;SDS011;50318;54.760;9.408;2022-10-24T03:33:24;13.75;;;6.10;;
64065;SDS011;50318;54.760;9.408;2022-10-24T03:35:51;13.05;;;6.22;;
64065;SDS011;50318;54.760;9.408;2022-10-24T03:38:18;11.85;;;6.00;;
64065;SDS011;50318;54.760;9.408;2022-10-24T03:40:44;9.30;;;5.65;;
64065;SDS011;50318;54.760;9.408;2022-10-24T03:43:09;11.10;;;5.70;;
64065;SDS011;50318;54.760;9.408;2022-10-24T03:45:35;16.23;;;6.20;;
64065;SDS011;50318;54.760;9.408;2022-10-24T03:48:02;9.98;;;6.05;;
64065;SDS011;50318;54.760;9.408;2022-10-24T03:50:29;8.27;;;6.10;;
64065;SDS011;50318;54.760;9.408;2022-10-24T03:52:54;10.85;;;5.72;;
64065;SDS011;50318;54.760;9.408;2022-10-24T03:55:20;12.43;;;6.20;;
64065;SDS011;50318;54.760;9.408;2022-10-24T03:57:46;12.95;;;6.05;;
64065;SDS011;50318;54.760;9.408;2022-10-24T04:00:12;10.55;;;5.70;;
64065;SDS011;50318;54.760;9.408;2022-10-24T04:02:38;10.60;;;6.20;;
64065;SDS011;50318;54.760;9.408;2022-10-24T04:05:04;11.95;;;5.82;;
64065;SDS011;50318;54.760;9.408;2022-10-24T04:07:30;13.60;;;6.38;;
64065;SDS011;50318;54.760;9.408;2022-10-24T04:09:56;10.05;;;5.88;;
64065;SDS011;50318;54.760;9.408;2022-10-24T04:12:22;10.60;;;6.18;;
64065;SDS011;50318;54.760;9.408;2022-10-24T04:14:49;10.55;;;6.50;;
64065;SDS011;50318;54.760;9.408;2022-10-24T04:17:15;10.88;;;6.47;;
64065;SDS011;50318;54.760;9.408;2022-10-24T04:19:40;13.68;;;6.50;;
64065;SDS011;50318;54.760;9.408;2022-10-24T04:22:06;12.95;;;6.57;;
64065;SDS011;50318;54.760;9.408;2022-10-24T04:24:32;13.32;;;6.22;;
64065;SDS011;50318;54.760;9.408;2022-10-24T04:26:58;12.00;;;6.35;;
64065;SDS011;50318;54.760;9.408;2022-10-24T04:29:23;11.25;;;6.43;;
64065;SDS011;50318;54.760;9.408;2022-10-24T04:31:49;12.20;;;6.55;;
64065;SDS011;50318;54.760;9.408;2022-10-24T04:34:15;11.00;;;6.45;;
64065;SDS011;50318;54.760;9.408;2022-10-24T04:36:41;14.00;;;6.60;;
64065;SDS011;50318;54.760;9.408;2022-10-24T04:39:07;11.82;;;6.97;;
64065;SDS011;50318;54.760;9.408;2022-10-24T04:41:33;12.50;;;6.68;;
64065;SDS011;50318;54.760;9.408;2022-10-24T04:43:59;16.38;;;7.13;;
64065;SDS011;50318;54.760;9.408;2022-10-24T04:46:24;13.32;;;7.07;;
64065;SDS011;50318;54.760;9.408;2022-10-24T04:48:50;18.10;;;7.53;;
64065;SDS011;50318;54.760;9.408;2022-10-24T04:51:17;13.18;;;7.43;;
64065;SDS011;50318;54.760;9.408;2022-10-24T04:53:43;15.68;;;7.25;;
64065;SDS011;50318;54.760;9.408;2022-10-24T04:56:09;12.40;;;7.53;;
64065;SDS011;50318;54.760;9.408;2022-10-24T04:58:35;18.52;;;7.70;;
64065;SDS011;50318;54.760;9.408;2022-10-24T05:01:00;12.75;;;6.97;;
64065;SDS011;50318;54.760;9.408;2022-10-24T05:03:26;15.43;;;7.35;;
64065;SDS011;50318;54.760;9.408;2022-10-24T05:06:18;15.35;;;8.05;;
64065;SDS011;50318;54.760;9.408;2022-10-24T05:08:43;13.40;;;7.38;;
64065;SDS011;50318;54.760;9.408;2022-10-24T05:11:09;14.75;;;7.85;;
64065;SDS011;50318;54.760;9.408;2022-10-24T05:13:36;14.98;;;7.90;;
64065;SDS011;50318;54.760;9.408;2022-10-24T05:16:02;13.25;;;7.78;;
64065;SDS011;50318;54.760;9.408;2022-10-24T05:18:29;22.77;;;8.25;;
64065;SDS011;50318;54.760;9.408;2022-10-24T05:20:58;15.75;;;7.78;;
64065;SDS011;50318;54.760;9.408;2022-10-24T05:23:25;13.63;;;7.72;;
64065;SDS011;50318;54.760;9.408;2022-10-24T05:25:51;16.25;;;8.60;;
64065;SDS011;50318;54.760;9.408;2022-10-24T05:28:17;14.13;;;8.30;;
64065;SDS011;50318;54.760;9.408;2022-10-24T05:30:43;17.70;;;8.43;;
64065;SDS011;50318;54.760;9.408;2022-10-24T05:33:09;16.75;;;8.60;;
64065;SDS011;50318;54.760;9.408;2022-10-24T05:35:34;12.85;;;8.23;;
64065;SDS011;50318;54.760;9.408;2022-10-24T05:38:00;16.90;;;9.05;;
64065;SDS011;50318;54.760;9.408;2022-10-24T05:40:26;16.20;;;9.18;;
64065;SDS011;50318;54.760;9.408;2022-10-24T05:42:52;18.27;;;8.93;;
64065;SDS011;50318;54.760;9.408;2022-10-24T05:45:18;15.80;;;9.45;;
64065;SDS011;50318;54.760;9.408;2022-10-24T05:47:44;18.52;;;9.70;;
64065;SDS011;50318;54.760;9.408;2022-10-24T05:50:09;20.65;;;9.90;;
64065;SDS011;50318;54.760;9.408;2022-10-24T05:52:36;18.27;;;10.07;;
64065;SDS011;50318;54.760;9.408;2022-10-24T05:55:05;20.90;;;10.82;;
64065;SDS011;50318;54.760;9.408;2022-10-24T05:57:31;21.50;;;11.43;;
64065;SDS011;50318;54.760;9.408;2022-10-24T05:59:57;27.40;;;11.70;;
64065;SDS011;50318;54.760;9.408;2022-10-24T06:02:23;21.30;;;11.75;;
64065;SDS011;50318;54.760;9.408;2022-10-24T06:04:49;24.52;;;11.70;;
64065;SDS011;50318;54.760;9.408;2022-10-24T06:07:15;21.80;;;11.80;;
64065;SDS011;50318;54.760;9.408;2022-10-24T06:09:44;30.45;;;12.63;;
64065;SDS011;50318;54.760;9.408;2022-10-24T06:12:10;20.83;;;11.93;;
64065;SDS011;50318;54.760;9.408;2022-10-24T06:14:37;24.73;;;11.85;;
64065;SDS011;50318;54.760;9.408;2022-10-24T06:17:03;23.25;;;11.40;;
64065;SDS011;50318;54.760;9.408;2022-10-24T06:19:34;22.83;;;11.43;;
64065;SDS011;50318;54.760;9.408;2022-10-24T06:22:01;16.63;;;10.35;;
64065;SDS011;50318;54.760;9.408;2022-10-24T06:24:27;21.60;;;10.15;;
64065;SDS011;50318;54.760;9.408;2022-10-24T06:26:53;20.70;;;10.70;;
64065;SDS011;50318;54.760;9.408;2022-10-24T06:29:19;22.33;;;10.68;;
64065;SDS011;50318;54.760;9.408;2022-10-24T06:31:44;18.08;;;9.52;;
64065;SDS011;50318;54.760;9.408;2022-10-24T06:34:10;21.73;;;9.82;;
64065;SDS011;50318;54.760;9.408;2022-10-24T06:36:38;18.30;;;9.30;;
64065;SDS011;50318;54.760;9.408;2022-10-24T06:39:09;18.20;;;8.88;;
64065;SDS011;50318;54.760;9.408;2022-10-24T06:41:34;18.13;;;9.18;;
64065;SDS011;50318;54.760;9.408;2022-10-24T06:44:01;20.88;;;9.20;;
64065;SDS011;50318;54.760;9.408;2022-10-24T06:46:27;18.52;;;8.80;;
64065;SDS011;50318;54.760;9.408;2022-10-24T06:48:53;12.35;;;7.63;;
64065;SDS011;50318;54.760;9.408;2022-10-24T06:51:19;17.13;;;8.30;;
64065;SDS011;50318;54.760;9.408;2022-10-24T06:53:45;17.83;;;7.95;;
64065;SDS011;50318;54.760;9.408;2022-10-24T06:56:37;16.02;;;8.18;;
64065;SDS011;50318;54.760;9.408;2022-10-24T06:59:07;13.98;;;7.45;;
64065;SDS011;50318;54.760;9.408;2022-10-24T07:01:38;16.65;;;8.02;;
64065;SDS011;50318;54.760;9.408;2022-10-24T07:04:04;14.75;;;7.30;;
64065;SDS011;50318;54.760;9.408;2022-10-24T07:06:30;14.82;;;6.90;;
64065;SDS011;50318;54.760;9.408;2022-10-24T07:08:56;15.90;;;7.15;;
64065;SDS011;50318;54.760;9.408;2022-10-24T07:11:24;15.10;;;7.30;;
64065;SDS011;50318;54.760;9.408;2022-10-24T07:13:50;13.50;;;6.65;;
64065;SDS011;50318;54.760;9.408;2022-10-24T07:16:16;15.93;;;6.78;;
64065;SDS011;50318;54.760;9.408;2022-10-24T07:18:42;13.68;;;6.85;;
64065;SDS011;50318;54.760;9.408;2022-10-24T07:21:13;15.10;;;6.97;;
64065;SDS011;50318;54.760;9.408;2022-10-24T07:23:42;16.17;;;6.95;;
64065;SDS011;50318;54.760;9.408;2022-10-24T07:26:09;15.30;;;7.15;;
64065;SDS011;50318;54.760;9.408;2022-10-24T07:28:38;16.88;;;7.47;;
64065;SDS011;50318;54.760;9.408;2022-10-24T07:31:16;15.90;;;6.97;;
64065;SDS011;50318;54.760;9.408;2022-10-24T07:33:42;11.68;;;6.60;;
64065;SDS011;50318;54.760;9.408;2022-10-24T07:36:08;12.25;;;6.50;;
64065;SDS011;50318;54.760;9.408;2022-10-24T07:38:34;11.35;;;6.15;;
64065;SDS011;50318;54.760;9.408;2022-10-24T07:41:03;11.02;;;5.97;;
64065;SDS011;50318;54.760;9.408;2022-10-24T07:43:30;14.40;;;6.53;;
64065;SDS011;50318;54.760;9.408;2022-10-24T07:45:56;15.93;;;5.78;;
64065;SDS011;50318;54.760;9.408;2022-10-24T07:48:22;15.10;;;5.82;;
64065;SDS011;50318;54.760;9.408;2022-10-24T07:50:47;10.98;;;5.68;;
64065;SDS011;50318;54.760;9.408;2022-10-24T07:53:13;13.43;;;6.00;;
64065;SDS011;50318;54.760;9.408;2022-10-24T07:55:40;12.45;;;5.70;;
64065;SDS011;50318;54.760;9.408;2022-10-24T07:58:07;11.77;;;5.60;;
64065;SDS011;50318;54.760;9.408;2022-10-24T08:00:34;11.82;;;5.50;;
64065;SDS011;50318;54.760;9.408;2022-10-24T08:03:01;14.77;;;5.65;;
64065;SDS011;50318;54.760;9.408;2022-10-24T08:05:27;11.73;;;5.55;;
64065;SDS011;50318;54.760;9.408;2022-10-24T08:07:53;14.63;;;5.95;;
64065;SDS011;50318;54.760;9.408;2022-10-24T08:10:18;10.52;;;5.63;;
64065;SDS011;50318;54.760;9.408;2022-10-24T08:12:44;19.50;;;5.88;;
64065;SDS011;50318;54.760;9.408;2022-10-24T08:15:10;10.38;;;5.15;;
64065;SDS011;50318;54.760;9.408;2022-10-24T08:17:36;10.85;;;5.50;;
64065;SDS011;50318;54.760;9.408;2022-10-24T08:20:03;10.55;;;5.15;;
64065;SDS011;50318;54.760;9.408;2022-10-24T08:22:29;11.57;;;5.47;;
64065;SDS011;50318;54.760;9.408;2022-10-24T08:24:55;11.18;;;5.15;;
64065;SDS011;50318;54.760;9.408;2022-10-24T08:27:20;13.40;;;5.95;;
64065;SDS011;50318;54.760;9.408;2022-10-24T08:29:46;11.15;;;4.82;;
64065;SDS011;50318;54.760;9.408;2022-10-24T08:32:12;14.70;;;5.13;;
64065;SDS011;50318;54.760;9.408;2022-10-24T08:34:37;15.07;;;5.28;;
64065;SDS011;50318;54.760;9.408;2022-10-24T08:37:03;14.63;;;4.60;;
64065;SDS011;50318;54.760;9.408;2022-10-24T08:39:29;8.23;;;4.10;;
64065;SDS011;50318;54.760;9.408;2022-10-24T08:41:55;13.30;;;4.78;;
64065;SDS011;50318;54.760;9.408;2022-10-24T08:47:05;10.88;;;4.82;;
64065;SDS011;50318;54.760;9.408;2022-10-24T08:52:58;12.60;;;4.35;;
64065;SDS011;50318;54.760;9.408;2022-10-24T08:55:42;9.10;;;3.67;;
64065;SDS011;50318;54.760;9.408;2022-10-24T08:58:22;11.60;;;4.00;;
64065;SDS011;50318;54.760;9.408;2022-10-24T09:00:51;12.85;;;3.95;;
64065;SDS011;50318;54.760;9.408;2022-10-24T09:06:07;11.63;;;4.10;;
64065;SDS011;50318;54.760;9.408;2022-10-24T09:08:55;9.00;;;3.47;;
64065;SDS011;50318;54.760;9.408;2022-10-24T09:14:16;10.02;;;3.50;;
64065;SDS011;50318;54.760;9.408;2022-10-24T09:16:53;10.68;;;3.55;;
64065;SDS011;50318;54.760;9.408;2022-10-24T09:19:22;11.25;;;3.88;;
64065;SDS011;50318;54.760;9.408;2022-10-24T09:21:50;10.40;;;3.40;;
64065;SDS011;50318;54.760;9.408;2022-10-24T09:26:55;16.27;;;3.67;;
64065;SDS011;50318;54.760;9.408;2022-10-24T09:29:26;11.00;;;3.35;;
64065;SDS011;50318;54.760;9.408;2022-10-24T09:31:54;11.15;;;3.28;;
64065;SDS011;50318;54.760;9.408;2022-10-24T09:34:20;6.63;;;2.63;;
64065;SDS011;50318;54.760;9.408;2022-10-24T09:36:45;11.10;;;2.38;;
64065;SDS011;50318;54.760;9.408;2022-10-24T09:39:22;7.32;;;2.63;;
64065;SDS011;50318;54.760;9.408;2022-10-24T09:41:50;11.32;;;3.90;;
64065;SDS011;50318;54.760;9.408;2022-10-24T09:47:05;9.15;;;2.60;;
64065;SDS011;50318;54.760;9.408;2022-10-24T09:49:45;10.63;;;2.97;;
64065;SDS011;50318;54.760;9.408;2022-10-24T09:52:24;7.70;;;2.65;;
64065;SDS011;50318;54.760;9.408;2022-10-24T09:55:04;8.73;;;2.60;;
64065;SDS011;50318;54.760;9.408;2022-10-24T09:57:42;9.05;;;2.83;;
64065;SDS011;50318;54.760;9.408;2022-10-24T10:00:41;9.38;;;2.58;;
64065;SDS011;50318;54.760;9.408;2022-10-24T10:03:05;10.70;;;2.23;;
64065;SDS011;50318;54.760;9.408;2022-10-24T10:05:45;9.68;;;2.88;;
64065;SDS011;50318;54.760;9.408;2022-10-24T10:08:34;9.10;;;2.40;;
64065;SDS011;50318;54.760;9.408;2022-10-24T10:11:08;6.95;;;2.38;;
64065;SDS011;50318;54.760;9.408;2022-10-24T10:16:17;11.87;;;3.07;;
64065;SDS011;50318;54.760;9.408;2022-10-24T10:18:46;10.55;;;2.95;;
64065;SDS011;50318;54.760;9.408;2022-10-24T10:21:19;11.57;;;2.83;;
64065;SDS011;50318;54.760;9.408;2022-10-24T10:23:48;9.57;;;2.72;;
64065;SDS011;50318;54.760;9.408;2022-10-24T10:26:19;10.25;;;2.80;;
64065;SDS011;50318;54.760;9.408;2022-10-24T10:29:01;12.48;;;2.42;;
64065;SDS011;50318;54.760;9.408;2022-10-24T10:31:48;7.97;;;2.30;;
64065;SDS011;50318;54.760;9.408;2022-10-24T10:34:36;6.82;;;2.40;;
64065;SDS011;50318;54.760;9.408;2022-10-24T10:41:57;8.00;;;2.38;;
64065;SDS011;50318;54.760;9.408;2022-10-24T10:44:40;8.65;;;2.50;;
64065;SDS011;50318;54.760;9.408;2022-10-24T10:52:54;8.57;;;2.53;;
64065;SDS011;50318;54.760;9.408;2022-10-24T10:55:34;9.02;;;2.40;;
64065;SDS011;50318;54.760;9.408;2022-10-24T10:58:16;10.73;;;2.22;;
64065;SDS011;50318;54.760;9.408;2022-10-24T11:11:13;8.23;;;2.05;;
64065;SDS011;50318;54.760;9.408;2022-10-24T11:13:57;11.95;;;3.05;;
64065;SDS011;50318;54.760;9.408;2022-10-24T11:16:29;10.27;;;2.67;;
64065;SDS011;50318;54.760;9.408;2022-10-24T11:18:58;11.05;;;3.00;;
64065;SDS011;50318;54.760;9.408;2022-10-24T11:21:29;7.43;;;2.42;;
64065;SDS011;50318;54.760;9.408;2022-10-24T11:24:06;8.05;;;2.30;;
64065;SDS011;50318;54.760;9.408;2022-10-24T11:27:05;9.73;;;2.63;;
64065;SDS011;50318;54.760;9.408;2022-10-24T11:29:47;6.00;;;2.05;;
64065;SDS011;50318;54.760;9.408;2022-10-24T11:32:23;9.00;;;2.25;;
64065;SDS011;50318;54.760;9.408;2022-10-24T11:35:32;9.13;;;2.25;;
64065;SDS011;50318;54.760;9.408;2022-10-24T11:37:55;9.02;;;2.35;;
64065;SDS011;50318;54.760;9.408;2022-10-24T11:40:43;8.57;;;2.95;;
64065;SDS011;50318;54.760;9.408;2022-10-24T11:43:14;9.57;;;2.97;;
64065;SDS011;50318;54.760;9.408;2022-10-24T11:45:58;8.73;;;2.20;;
64065;SDS011;50318;54.760;9.408;2022-10-24T11:51:24;9.02;;;2.38;;
64065;SDS011;50318;54.760;9.408;2022-10-24T11:54:11;6.93;;;2.47;;
64065;SDS011;50318;54.760;9.408;2022-10-24T11:56:49;13.35;;;2.28;;
64065;SDS011;50318;54.760;9.408;2022-10-24T11:59:19;7.45;;;2.17;;
64065;SDS011;50318;54.760;9.408;2022-10-24T12:10:30;8.45;;;2.72;;
64065;SDS011;50318;54.760;9.408;2022-10-24T12:15:45;8.32;;;2.15;;
64065;SDS011;50318;54.760;9.408;2022-10-24T12:18:36;11.30;;;2.38;;
64065;SDS011;50318;54.760;9.408;2022-10-24T12:21:07;10.10;;;1.92;;
64065;SDS011;50318;54.760;9.408;2022-10-24T12:23:35;11.00;;;2.30;;
64065;SDS011;50318;54.760;9.408;2022-10-24T12:26:05;9.48;;;2.40;;
64065;SDS011;50318;54.760;9.408;2022-10-24T12:28:39;7.72;;;1.83;;
64065;SDS011;50318;54.760;9.408;2022-10-24T12:31:06;10.10;;;2.30;;
64065;SDS011;50318;54.760;9.408;2022-10-24T12:33:35;12.27;;;2.35;;
64065;SDS011;50318;54.760;9.408;2022-10-24T12:36:01;9.40;;;2.42;;
64065;SDS011;50318;54.760;9.408;2022-10-24T12:51:45;7.80;;;2.33;;
64065;SDS011;50318;54.760;9.408;2022-10-24T13:15:21;8.88;;;2.00;;
64065;SDS011;50318;54.760;9.408;2022-10-24T13:17:58;11.68;;;2.15;;
64065;SDS011;50318;54.760;9.408;2022-10-24T13:20:46;10.57;;;2.28;;
64065;SDS011;50318;54.760;9.408;2022-10-24T13:23:24;10.52;;;2.13;;
64065;SDS011;50318;54.760;9.408;2022-10-24T13:25:55;10.00;;;2.35;;
64065;SDS011;50318;54.760;9.408;2022-10-24T13:33:41;7.55;;;2.00;;
64065;SDS011;50318;54.760;9.408;2022-10-24T13:41:25;10.50;;;2.20;;
64065;SDS011;50318;54.760;9.408;2022-10-24T13:43:56;13.10;;;2.38;;
64065;SDS011;50318;54.760;9.408;2022-10-24T13:46:29;13.35;;;2.55;;
64065;SDS011;50318;54.760;9.408;2022-10-24T13:49:01;9.10;;;2.20;;
64065;SDS011;50318;54.760;9.408;2022-10-24T13:51:46;6.55;;;2.17;;
64065;SDS011;50318;54.760;9.408;2022-10-24T13:54:20;8.70;;;2.78;;
64065;SDS011;50318;54.760;9.408;2022-10-24T13:56:50;8.88;;;2.20;;
64065;SDS011;50318;54.760;9.408;2022-10-24T13:59:33;8.73;;;2.53;;
64065;SDS011;50318;54.760;9.408;2022-10-24T14:02:03;9.10;;;2.38;;
64065;SDS011;50318;54.760;9.408;2022-10-24T14:04:30;6.47;;;1.88;;
64065;SDS011;50318;54.760;9.408;2022-10-24T14:07:00;9.40;;;2.08;;
64065;SDS011;50318;54.760;9.408;2022-10-24T14:09:28;12.18;;;2.20;;
64065;SDS011;50318;54.760;9.408;2022-10-24T14:11:54;8.70;;;2.50;;
64065;SDS011;50318;54.760;9.408;2022-10-24T14:14:29;10.85;;;2.65;;
64065;SDS011;50318;54.760;9.408;2022-10-24T14:17:23;9.85;;;2.47;;
64065;SDS011;50318;54.760;9.408;2022-10-24T14:20:02;8.35;;;2.15;;
64065;SDS011;50318;54.760;9.408;2022-10-24T14:22:39;9.13;;;2.40;;
64065;SDS011;50318;54.760;9.408;2022-10-24T14:25:06;8.90;;;2.55;;
64065;SDS011;50318;54.760;9.408;2022-10-24T14:27:53;10.43;;;2.40;;
64065;SDS011;50318;54.760;9.408;2022-10-24T14:30:23;9.48;;;2.08;;
64065;SDS011;50318;54.760;9.408;2022-10-24T14:33:14;10.70;;;2.58;;
64065;SDS011;50318;54.760;9.408;2022-10-24T14:35:44;10.80;;;2.33;;
64065;SDS011;50318;54.760;9.408;2022-10-24T14:38:12;9.43;;;2.53;;
64065;SDS011;50318;54.760;9.408;2022-10-24T14:40:44;7.35;;;2.08;;
64065;SDS011;50318;54.760;9.408;2022-10-24T14:43:13;9.98;;;2.50;;
64065;SDS011;50318;54.760;9.408;2022-10-24T14:45:42;10.55;;;2.20;;
64065;SDS011;50318;54.760;9.408;2022-10-24T14:48:38;9.48;;;2.70;;
64065;SDS011;50318;54.760;9.408;2022-10-24T14:51:09;10.48;;;2.30;;
64065;SDS011;50318;54.760;9.408;2022-10-24T14:53:39;8.57;;;2.65;;
64065;SDS011;50318;54.760;9.408;2022-10-24T14:56:26;8.65;;;1.95;;
64065;SDS011;50318;54.760;9.408;2022-10-24T14:59:02;8.43;;;1.80;;
64065;SDS011;50318;54.760;9.408;2022-10-24T15:01:29;6.20;;;1.80;;
64065;SDS011;50318;54.760;9.408;2022-10-24T15:04:00;8.38;;;2.17;;
64065;SDS011;50318;54.760;9.408;2022-10-24T15:06:38;10.77;;;1.85;;
64065;SDS011;50318;54.760;9.408;2022-10-24T15:11:45;8.93;;;2.17;;
64065;SDS011;50318;54.760;9.408;2022-10-24T15:17:17;10.27;;;2.50;;
64065;SDS011;50318;54.760;9.408;2022-10-24T15:19:52;9.07;;;2.33;;
64065;SDS011;50318;54.760;9.408;2022-10-24T15:22:30;9.40;;;2.43;;
64065;SDS011;50318;54.760;9.408;2022-10-24T15:24:59;8.60;;;2.53;;
64065;SDS011;50318;54.760;9.408;2022-10-24T15:27:40;12.90;;;2.80;;
64065;SDS011;50318;54.760;9.408;2022-10-24T15:30:18;8.98;;;2.53;;
64065;SDS011;50318;54.760;9.408;2022-10-24T15:32:46;11.25;;;2.70;;
64065;SDS011;50318;54.760;9.408;2022-10-24T15:35:13;8.68;;;2.30;;
64065;SDS011;50318;54.760;9.408;2022-10-24T15:37:39;10.15;;;2.80;;
64065;SDS011;50318;54.760;9.408;2022-10-24T15:40:19;10.02;;;3.05;;
64065;SDS011;50318;54.760;9.408;2022-10-24T15:42:47;13.32;;;2.63;;
64065;SDS011;50318;54.760;9.408;2022-10-24T15:45:13;10.75;;;2.42;;
64065;SDS011;50318;54.760;9.408;2022-10-24T15:47:39;15.07;;;3.42;;
64065;SDS011;50318;54.760;9.408;2022-10-24T15:50:05;9.38;;;2.50;;
64065;SDS011;50318;54.760;9.408;2022-10-24T15:52:31;10.32;;;2.42;;
64065;SDS011;50318;54.760;9.408;2022-10-24T15:54:57;7.88;;;2.45;;
64065;SDS011;50318;54.760;9.408;2022-10-24T15:57:24;13.45;;;2.83;;
64065;SDS011;50318;54.760;9.408;2022-10-24T15:59:50;8.70;;;2.42;;
64065;SDS011;50318;54.760;9.408;2022-10-24T16:02:19;11.23;;;2.58;;
64065;SDS011;50318;54.760;9.408;2022-10-24T16:04:47;13.02;;;2.50;;
64065;SDS011;50318;54.760;9.408;2022-10-24T16:07:13;12.75;;;2.50;;
64065;SDS011;50318;54.760;9.408;2022-10-24T16:09:39;10.73;;;2.80;;
64065;SDS011;50318;54.760;9.408;2022-10-24T16:12:06;12.63;;;2.95;;
64065;SDS011;50318;54.760;9.408;2022-10-24T16:14:32;13.65;;;2.97;;
64065;SDS011;50318;54.760;9.408;2022-10-24T16:16:58;10.88;;;3.00;;
64065;SDS011;50318;54.760;9.408;2022-10-24T16:19:24;16.70;;;3.35;;
64065;SDS011;50318;54.760;9.408;2022-10-24T16:21:51;16.20;;;2.70;;
64065;SDS011;50318;54.760;9.408;2022-10-24T16:24:21;14.98;;;3.22;;
64065;SDS011;50318;54.760;9.408;2022-10-24T16:26:49;15.57;;;3.17;;
64065;SDS011;50318;54.760;9.408;2022-10-24T16:29:15;15.55;;;3.60;;
64065;SDS011;50318;54.760;9.408;2022-10-24T16:31:40;20.58;;;3.80;;
64065;SDS011;50318;54.760;9.408;2022-10-24T16:34:07;12.80;;;3.22;;
64065;SDS011;50318;54.760;9.408;2022-10-24T16:36:33;19.15;;;3.67;;
64065;SDS011;50318;54.760;9.408;2022-10-24T16:38:59;17.17;;;3.30;;
64065;SDS011;50318;54.760;9.408;2022-10-24T16:41:25;15.65;;;3.25;;
64065;SDS011;50318;54.760;9.408;2022-10-24T16:43:55;17.98;;;3.53;;
64065;SDS011;50318;54.760;9.408;2022-10-24T16:46:31;17.98;;;3.15;;
64065;SDS011;50318;54.760;9.408;2022-10-24T16:48:56;19.70;;;4.35;;
64065;SDS011;50318;54.760;9.408;2022-10-24T16:51:26;20.33;;;3.78;;
64065;SDS011;50318;54.760;9.408;2022-10-24T16:53:57;17.15;;;3.65;;
64065;SDS011;50318;54.760;9.408;2022-10-24T16:56:23;17.58;;;3.17;;
64065;SDS011;50318;54.760;9.408;2022-10-24T16:58:49;16.25;;;2.80;;
64065;SDS011;50318;54.760;9.408;2022-10-24T17:01:15;14.23;;;3.00;;
64065;SDS011;50318;54.760;9.408;2022-10-24T17:03:41;16.27;;;3.15;;
64065;SDS011;50318;54.760;9.408;2022-10-24T17:06:09;19.88;;;3.78;;